Bani, Dominican Republic
Current Conditions -  °F | °C
As of 5:00 PM on Friday 24 Oct 2014 (Local Time) from MDSD Reporting Station
Scattered Clouds Scattered Clouds  
Wind Chill: 88°   Ceiling: Unl
Heat Index: 96°   Visibility: 6mi
Dew Point: 73°   Wind: 6mph
Humidity: 62%   Direction: 160°SSE
Pressure: 29.83"   Gusts: NA
Location:  18.29°N, 70.33°W
Report Text: MDSD 242100Z 16005KT 9999 SCT025 SCT300 31/23 Q1010
Loading
Personal Weather Stations






























Interactive Weather Map
Tropical Storm Tracking
New forecast layout! Learn more

10-Day Weather Forecast

Advertisements
Track Severe Weather on mobile